| time (UTC) | temp C | wind direction | speed KPH | gust KPH | rain 1hr cm | rain 24hr cm | rain mn cm | humidity % | barometer mb |
| 20260507064602 | 15 | 128 | 1.6 | 8.0 | 0.00 | 0.79 | 0.79 | 90 | 1015.8 |
| 20260507063057 | 14 | 130 | 0.0 | 0.0 | 0.00 | 0.79 | 0.79 | 91 | 1015.7 |
| 20260507061555 | 14 | 173 | 0.0 | 8.0 | 0.00 | 0.79 | 0.79 | 91 | 1015.7 |
| 20260507060053 | 14 | 123 | 0.0 | 8.0 | 0.00 | 0.79 | 0.79 | 92 | 1015.5 |
| 20260507054552 | 13 | 142 | 0.0 | 6.4 | 0.00 | 0.79 | 0.79 | 92 | 1015.6 |
| 20260507053052 | 13 | 173 | 0.0 | 1.6 | 0.00 | 0.79 | 0.79 | 93 | 1015.6 |
| 20260507051549 | 13 | 175 | 0.0 | 1.6 | 0.00 | 0.79 | 0.79 | 93 | 1015.7 |
| 20260507050103 | 13 | 174 | 0.0 | 0.0 | 0.00 | 0.79 | 0.79 | 93 | 1015.5 |
| 20260507044551 | 13 | 172 | 0.0 | 4.8 | 0.00 | 0.79 | 0.79 | 93 | 1015.3 |
| 20260507043041 | 13 | 174 | 0.0 | 0.0 | 0.00 | 0.79 | 0.79 | 93 | 1015.1 |
| 20260507041544 | 13 | 174 | 0.0 | 0.0 | 0.00 | 0.79 | 0.79 | 93 | 1015.0 |
| 20260507040038 | 13 | 174 | 0.0 | 4.8 | 0.00 | 0.79 | 0.79 | 93 | 1014.8 |
| 20260507034541 | 13 | 293 | 0.0 | 3.2 | 0.00 | 0.81 | 0.79 | 93 | 1014.7 |
| 20260507033041 | 13 | 293 | 1.6 | 9.7 | 0.00 | 0.81 | 0.79 | 94 | 1014.7 |
| 20260507031536 | 13 | 114 | 0.0 | 11.3 | 0.00 | 0.81 | 0.79 | 94 | 1014.3 |
| 20260507030037 | 13 | 124 | 4.8 | 11.3 | 0.00 | 0.81 | 0.79 | 94 | 1014.5 |
| 20260507024542 | 13 | 121 | 3.2 | 11.3 | 0.00 | 0.89 | 0.79 | 94 | 1014.5 |
| 20260507023034 | 13 | 128 | 3.2 | 11.3 | 0.00 | 0.89 | 0.79 | 93 | 1014.4 |
| 20260507021546 | 13 | 130 | 3.2 | 12.9 | 0.03 | 0.89 | 0.79 | 94 | 1014.4 |
| 20260507020032 | 13 | 123 | 1.6 | 12.9 | 0.05 | 0.89 | 0.79 | 94 | 1014.4 |
| 20260507014528 | 13 | 134 | 6.4 | 12.9 | 0.56 | 0.89 | 0.79 | 93 | 1014.4 |
| 20260507013033 | 14 | 123 | 0.0 | 0.0 | 0.64 | 0.89 | 0.79 | 93 | 1014.5 |
| 20260507011530 | 14 | 123 | 0.0 | 0.0 | 0.61 | 0.89 | 0.79 | 93 | 1014.5 |
| 20260507010034 | 14 | 130 | 3.2 | 6.4 | 0.58 | 0.84 | 0.71 | 92 | 1014.3 |
| 20260507004521 | 15 | 126 | 0.0 | 11.3 | 0.08 | 0.33 | 0.23 | 92 | 1014.3 |
| 20260507003015 | -17 | 0.0 | 0.0 | 0.00 | 0.25 | 0.15 | 1014.3 | ||
| 20260507001512 | -17 | 0.0 | 0.0 | 0.00 | 0.25 | 0.15 | 1014.3 | ||
| 20260507000006 | -17 | 0.0 | 0.0 | 0.00 | 0.25 | 0.15 | 1014.3 | ||
| 20260506234502 | -17 | 0.0 | 0.0 | 0.03 | 0.25 | 0.15 | 1014.2 | ||
| 20260506233100 | -17 | 0.0 | 0.0 | 0.15 | 0.25 | 0.15 | 1014.4 | ||
| 20260506231556 | 15 | 158 | 0.0 | 3.2 | 0.15 | 0.25 | 0.15 | 91 | 1014.4 |
| 20260506230058 | 15 | 158 | 0.0 | 8.0 | 0.15 | 0.25 | 0.15 | 91 | 1014.6 |
| 20260506224552 | 15 | 123 | 0.0 | 11.3 | 0.15 | 0.23 | 0.15 | 90 | 1014.6 |
| 20260506223057 | 15 | 136 | 0.0 | 9.7 | 0.00 | 0.10 | 0.00 | 90 | 1014.6 |
| 20260506221548 | 15 | 127 | 0.0 | 0.0 | 0.00 | 0.10 | 0.00 | 89 | 1014.6 |
| 20260506220045 | 15 | 134 | 0.0 | 12.9 | 0.00 | 0.10 | 0.00 | 88 | 1014.5 |
| 20260506214545 | 16 | 136 | 0.0 | 4.8 | 0.00 | 0.10 | 0.10 | 86 | 1014.4 |
| 20260506213044 | 16 | 190 | 0.0 | 14.5 | 0.00 | 0.10 | 0.10 | 85 | 1014.5 |
| 20260506211543 | 16 | 179 | 0.0 | 3.2 | 0.00 | 0.10 | 0.10 | 85 | 1014.5 |
| 20260506210043 | 16 | 183 | 0.0 | 0.0 | 0.00 | 0.10 | 0.10 | 84 | 1014.5 |
| 20260506204553 | 16 | 147 | 0.0 | 6.4 | 0.00 | 0.10 | 0.10 | 84 | 1014.4 |
| 20260506203042 | 16 | 138 | 1.6 | 6.4 | 0.00 | 0.10 | 0.10 | 84 | 1014.4 |
| 20260506201542 | 16 | 128 | 0.0 | 9.7 | 0.00 | 0.10 | 0.10 | 84 | 1014.2 |
| 20260506200048 | 16 | 146 | 0.0 | 9.7 | 0.00 | 0.10 | 0.10 | 83 | 1014.2 |
| 20260506194547 | 16 | 181 | 0.0 | 8.0 | 0.00 | 0.10 | 0.10 | 82 | 1014.3 |
| 20260506193040 | 16 | 184 | 1.6 | 12.9 | 0.00 | 0.10 | 0.10 | 81 | 1014.0 |
| 20260506191539 | 16 | 182 | 3.2 | 9.7 | 0.00 | 0.10 | 0.10 | 80 | 1013.9 |
| 20260506190040 | 16 | 173 | 0.0 | 11.3 | 0.00 | 0.10 | 0.10 | 80 | 1013.7 |
| 20260506184541 | 16 | 175 | 0.0 | 6.4 | 0.00 | 0.10 | 0.10 | 80 | 1013.4 |
| 20260506183045 | 16 | 155 | 0.0 | 8.0 | 0.00 | 0.10 | 0.10 | 79 | 1013.3 |
| 20260506181537 | 17 | 180 | 0.0 | 8.0 | 0.00 | 0.10 | 0.10 | 79 | 1013.3 |
| 20260506180036 | 17 | 172 | 4.8 | 16.1 | 0.00 | 0.10 | 0.10 | 79 | 1013.2 |
| 20260506174536 | 17 | 180 | 4.8 | 16.1 | 0.00 | 0.10 | 0.10 | 80 | 1013.1 |
| 20260506173136 | 17 | 184 | 1.6 | 8.0 | 0.00 | 0.10 | 0.10 | 80 | 1013.3 |
| 20260506171541 | 17 | 165 | 0.0 | 11.3 | 0.00 | 0.10 | 0.10 | 80 | 1012.9 |
| 20260506170038 | 18 | 178 | 3.2 | 16.1 | 0.00 | 0.10 | 0.10 | 79 | 1012.9 |
| 20260506164543 | 18 | 180 | 8.0 | 17.7 | 0.00 | 0.10 | 0.10 | 78 | 1012.9 |
| 20260506163032 | 18 | 155 | 6.4 | 22.5 | 0.00 | 0.10 | 0.10 | 77 | 1012.9 |
| 20260506161539 | 20 | 165 | 9.7 | 19.3 | 0.00 | 0.10 | 0.10 | 76 | 1013.0 |
| 20260506160042 | 20 | 142 | 3.2 | 11.3 | 0.00 | 0.10 | 0.10 | 73 | 1012.9 |
| 20260506154532 | 19 | 195 | 3.2 | 14.5 | 0.00 | 0.10 | 0.10 | 75 | 1013.0 |
| 20260506153029 | 20 | 165 | 6.4 | 16.1 | 0.00 | 0.10 | 0.10 | 72 | 1013.0 |
| 20260506151535 | 20 | 181 | 8.0 | 16.1 | 0.00 | 0.10 | 0.10 | 73 | 1013.0 |
| 20260506150032 | 20 | 281 | 3.2 | 11.3 | 0.00 | 0.10 | 0.10 | 74 | 1013.0 |
| 20260506144528 | 20 | 253 | 6.4 | 16.1 | 0.00 | 0.10 | 0.10 | 71 | 1013.0 |
| 20260506143041 | 18 | 190 | 4.8 | 14.5 | 0.00 | 0.10 | 0.10 | 72 | 1013.0 |
| 20260506141526 | 18 | 173 | 8.0 | 25.7 | 0.00 | 0.10 | 0.10 | 69 | 1012.9 |
| 20260506140033 | 20 | 196 | 11.3 | 24.1 | 0.00 | 0.10 | 0.10 | 66 | 1012.8 |
| 20260506134523 | 21 | 182 | 8.0 | 19.3 | 0.00 | 0.10 | 0.10 | 66 | 1013.1 |
| 20260506133025 | 21 | 119 | 8.0 | 16.1 | 0.00 | 0.10 | 0.10 | 66 | 1013.3 |
| 20260506131525 | 20 | 185 | 4.8 | 19.3 | 0.00 | 0.10 | 0.10 | 68 | 1013.6 |
| 20260506130024 | 20 | 186 | 9.7 | 20.9 | 0.00 | 0.10 | 0.10 | 68 | 1013.7 |
| 20260506124518 | 19 | 193 | 8.0 | 17.7 | 0.00 | 0.10 | 0.10 | 68 | 1013.8 |
| 20260506123018 | 19 | 153 | 6.4 | 20.9 | 0.00 | 0.10 | 0.10 | 68 | 1013.8 |
| 20260506121516 | 19 | 190 | 3.2 | 12.9 | 0.00 | 0.10 | 0.10 | 67 | 1013.7 |
| 20260506120015 | 18 | 179 | 9.7 | 17.7 | 0.00 | 0.10 | 0.10 | 65 | 1013.7 |
| 20260506114520 | 19 | 223 | 8.0 | 19.3 | 0.00 | 0.10 | 0.10 | 63 | 1013.9 |
| 20260506113014 | 20 | 181 | 12.9 | 20.9 | 0.00 | 0.10 | 0.10 | 60 | 1013.7 |
| 20260506111512 | 20 | 136 | 8.0 | 17.7 | 0.00 | 0.10 | 0.10 | 62 | 1013.9 |
| 20260506110012 | 19 | 211 | 6.4 | 19.3 | 0.00 | 0.10 | 0.10 | 62 | 1013.9 |
| 20260506104510 | 19 | 178 | 6.4 | 37.0 | 0.00 | 0.10 | 0.10 | 65 | 1013.7 |
| 20260506103014 | 20 | 186 | 4.8 | 24.1 | 0.00 | 0.10 | 0.10 | 68 | 1013.7 |
| 20260506101506 | 19 | 182 | 9.7 | 20.9 | 0.00 | 0.10 | 0.10 | 70 | 1013.9 |
| 20260506100004 | 18 | 175 | 9.7 | 20.9 | 0.00 | 0.10 | 0.10 | 72 | 1013.9 |
| 20260506094605 | 18 | 175 | 8.0 | 16.1 | 0.00 | 0.10 | 0.10 | 76 | 1014.0 |
| 20260506093105 | 17 | 146 | 8.0 | 19.3 | 0.00 | 0.10 | 0.10 | 76 | 1014.2 |
| 20260506091555 | 16 | 173 | 3.2 | 16.1 | 0.00 | 0.10 | 0.10 | 79 | 1014.2 |
| 20260506090052 | 16 | 172 | 4.8 | 14.5 | 0.00 | 0.10 | 0.10 | 79 | 1014.3 |
| 20260506084552 | 16 | 172 | 1.6 | 16.1 | 0.00 | 0.10 | 0.10 | 80 | 1014.2 |
| 20260506083049 | 16 | 172 | 1.6 | 16.1 | 0.00 | 0.10 | 0.10 | 80 | 1014.1 |
| 20260506081548 | 16 | 180 | 1.6 | 17.7 | 0.00 | 0.10 | 0.10 | 81 | 1014.2 |
| 20260506073045 | 15 | 132 | 0.0 | 3.2 | 0.00 | 0.10 | 0.10 | 84 | 1014.3 |
| 20260506071550 | 14 | 182 | 0.0 | 6.4 | 0.00 | 0.10 | 0.10 | 85 | 1014.3 |